createdAt,value
2019-03-23T00:00:10.846Z,6.50
2019-03-23T00:02:39.505Z,6.30
2019-03-23T00:05:09.559Z,6.30
2019-03-23T00:07:38.213Z,6.20
2019-03-23T00:10:07.731Z,6.20
2019-03-23T00:12:36.386Z,6.30
2019-03-23T00:15:09.065Z,6.20
2019-03-23T00:17:38.597Z,6.10
2019-03-23T00:20:07.740Z,6.10
2019-03-23T00:22:36.667Z,6.10
2019-03-23T00:25:05.986Z,6.10
2019-03-23T00:27:34.831Z,6.00
2019-03-23T00:30:06.712Z,6.10
2019-03-23T00:32:35.520Z,6.20
2019-03-23T00:35:06.528Z,6.20
2019-03-23T00:37:35.421Z,6.20
2019-03-23T00:40:09.398Z,6.20
2019-03-23T00:42:37.994Z,6.10
2019-03-23T00:45:08.566Z,6.10
2019-03-23T00:47:37.243Z,6.10
2019-03-23T00:50:07.706Z,6.10
2019-03-23T00:52:36.311Z,6.10
2019-03-23T00:55:07.585Z,6.20
2019-03-23T00:57:36.365Z,6.20
2019-03-23T01:00:13.066Z,6.20
2019-03-23T01:02:42.167Z,6.20
2019-03-23T01:05:11.407Z,6.20
2019-03-23T01:07:40.073Z,6.30
2019-03-23T01:10:11.097Z,6.20
2019-03-23T01:12:39.881Z,6.20
2019-03-23T01:15:11.429Z,6.20
2019-03-23T01:17:40.256Z,6.20
2019-03-23T01:20:11.417Z,6.20
2019-03-23T01:22:40.096Z,6.20
2019-03-23T01:25:10.464Z,6.30
2019-03-23T01:27:39.068Z,6.20
2019-03-23T01:30:13.559Z,6.20
2019-03-23T01:32:42.163Z,6.20
2019-03-23T01:35:11.230Z,6.30
2019-03-23T01:37:39.837Z,6.30
2019-03-23T01:40:09.644Z,6.30
2019-03-23T01:42:38.251Z,6.30
2019-03-23T01:45:10.870Z,6.30
2019-03-23T01:47:39.527Z,6.30
2019-03-23T01:50:09.737Z,6.30
2019-03-23T01:52:38.484Z,6.30
2019-03-23T01:55:08.097Z,6.30
2019-03-23T01:57:36.714Z,6.30
2019-03-23T02:00:09.373Z,6.30
2019-03-23T02:02:38.025Z,6.30
2019-03-23T02:05:08.091Z,6.20
2019-03-23T02:07:36.743Z,6.20
2019-03-23T02:10:08.261Z,6.10
2019-03-23T02:12:36.867Z,6.00
2019-03-23T02:15:09.429Z,5.90
2019-03-23T02:17:38.042Z,5.80
2019-03-23T02:20:12.115Z,5.80
2019-03-23T02:22:41.019Z,5.70
2019-03-23T02:25:09.960Z,5.70
2019-03-23T02:27:38.788Z,5.60
2019-03-23T02:30:14.074Z,5.60
2019-03-23T02:32:42.727Z,5.60
2019-03-23T02:35:11.671Z,5.60
2019-03-23T02:37:40.282Z,5.60
2019-03-23T02:40:10.179Z,5.60
2019-03-23T02:42:38.958Z,5.50
2019-03-23T02:45:12.321Z,5.40
2019-03-23T02:47:41.153Z,5.50
2019-03-23T02:50:10.927Z,5.50
2019-03-23T02:52:39.628Z,5.40
2019-03-23T02:55:10.106Z,5.40
2019-03-23T02:57:39.027Z,5.40
2019-03-23T03:00:11.182Z,5.40
2019-03-23T03:02:39.913Z,5.40
2019-03-23T03:05:09.320Z,5.30
2019-03-23T03:07:42.564Z,5.30
2019-03-23T03:10:11.116Z,5.30
2019-03-23T03:12:39.718Z,5.30
2019-03-23T03:15:09.731Z,5.30
2019-03-23T03:17:38.433Z,5.30
2019-03-23T03:20:10.898Z,5.30
2019-03-23T03:22:39.557Z,5.30
2019-03-23T03:25:08.726Z,5.30
2019-03-23T03:27:37.554Z,5.30
2019-03-23T03:30:10.570Z,5.30
2019-03-23T03:32:39.307Z,5.30
2019-03-23T03:35:08.651Z,5.40
2019-03-23T03:37:37.268Z,5.40
2019-03-23T03:40:07.448Z,5.40
2019-03-23T03:42:36.172Z,5.40
2019-03-23T03:45:11.077Z,5.40
2019-03-23T03:47:41.389Z,5.40
2019-03-23T03:50:11.601Z,5.40
2019-03-23T03:52:40.292Z,5.30
2019-03-23T03:55:09.018Z,5.30
2019-03-23T03:57:37.691Z,5.30
2019-03-23T04:00:09.074Z,5.30
2019-03-23T04:02:38.057Z,5.30
2019-03-23T04:05:08.041Z,5.30
2019-03-23T04:07:36.645Z,5.30
2019-03-23T04:10:07.115Z,5.30
2019-03-23T04:12:35.725Z,5.20
2019-03-23T04:15:07.998Z,5.30
2019-03-23T04:17:36.611Z,5.40
2019-03-23T04:20:09.940Z,5.30
2019-03-23T04:22:38.564Z,5.30
2019-03-23T04:25:10.157Z,5.30
2019-03-23T04:27:38.947Z,5.40
2019-03-23T04:30:10.681Z,5.40
2019-03-23T04:32:39.404Z,5.40
2019-03-23T04:35:08.774Z,5.40
2019-03-23T04:37:37.495Z,5.30
2019-03-23T04:40:11.103Z,5.30
2019-03-23T04:42:39.766Z,5.20
2019-03-23T04:45:10.276Z,5.20
2019-03-23T04:47:38.936Z,5.20
2019-03-23T04:50:10.451Z,5.10
2019-03-23T04:52:39.180Z,5.10
2019-03-23T04:55:12.824Z,5.20
2019-03-23T04:57:41.478Z,5.20
2019-03-23T05:00:16.414Z,5.10
2019-03-23T05:02:45.639Z,5.10
2019-03-23T05:05:14.367Z,5.10
2019-03-23T05:07:43.018Z,5.10
2019-03-23T05:10:12.684Z,5.10
2019-03-23T05:12:41.486Z,5.10
2019-03-23T05:15:11.057Z,5.00
2019-03-23T05:17:39.659Z,5.10
2019-03-23T05:20:10.531Z,5.00
2019-03-23T05:22:39.207Z,5.10
2019-03-23T05:25:11.084Z,5.10
2019-03-23T05:27:39.693Z,5.20
2019-03-23T05:30:08.602Z,5.10
2019-03-23T05:32:37.200Z,5.20
2019-03-23T05:35:06.935Z,5.20
2019-03-23T05:37:35.589Z,5.30
2019-03-23T05:40:06.429Z,5.40
2019-03-23T05:42:35.455Z,5.50
2019-03-23T05:45:06.168Z,5.60
2019-03-23T05:47:34.823Z,5.70
2019-03-23T05:50:05.672Z,5.90
2019-03-23T05:52:34.326Z,5.90
2019-03-23T05:55:04.370Z,6.00
2019-03-23T05:57:33.038Z,6.00
2019-03-23T06:00:01.909Z,6.10
2019-03-23T06:02:30.570Z,6.20
2019-03-23T06:04:59.224Z,6.20
2019-03-23T06:07:27.880Z,6.30
2019-03-23T06:09:56.537Z,6.30
2019-03-23T06:12:25.152Z,6.40
2019-03-23T06:14:53.814Z,6.40
2019-03-23T06:17:22.425Z,6.50
2019-03-23T06:19:51.035Z,6.60
2019-03-23T06:22:19.691Z,6.70
2019-03-23T06:24:48.350Z,6.80
2019-03-23T06:27:16.955Z,6.80
2019-03-23T06:29:45.708Z,6.90
2019-03-23T06:32:14.315Z,7.10
2019-03-23T06:34:42.965Z,7.20
2019-03-23T06:37:11.618Z,7.30
2019-03-23T06:39:40.248Z,7.40
2019-03-23T06:42:08.910Z,7.50
2019-03-23T06:44:37.562Z,7.70
2019-03-23T06:47:06.173Z,7.70
2019-03-23T06:49:34.828Z,7.80
2019-03-23T06:52:03.491Z,7.90
2019-03-23T06:54:32.100Z,8.00
2019-03-23T06:57:00.761Z,8.10
2019-03-23T06:59:29.423Z,8.10
2019-03-23T07:01:58.039Z,8.20
2019-03-23T07:04:26.953Z,8.30
2019-03-23T07:06:55.695Z,8.30
2019-03-23T07:09:24.368Z,8.40
2019-03-23T07:11:52.980Z,8.50
2019-03-23T07:14:21.638Z,8.50
2019-03-23T07:16:50.338Z,8.60
2019-03-23T07:19:19.000Z,8.70
2019-03-23T07:21:47.616Z,8.70
2019-03-23T07:24:16.273Z,8.80
2019-03-23T07:26:44.932Z,8.90
2019-03-23T07:29:13.592Z,9.00
2019-03-23T07:31:42.254Z,9.10
2019-03-23T07:34:10.865Z,9.20
2019-03-23T07:36:39.525Z,9.30
2019-03-23T07:39:08.137Z,9.40
2019-03-23T07:41:36.800Z,9.50
2019-03-23T07:44:05.484Z,9.50
2019-03-23T07:46:34.136Z,9.70
2019-03-23T07:49:02.948Z,9.80
2019-03-23T07:51:31.570Z,10.00
2019-03-23T07:54:02.595Z,10.00
2019-03-23T07:56:30.572Z,10.10
2019-03-23T07:58:59.231Z,10.20
2019-03-23T08:01:27.849Z,10.30
2019-03-23T08:03:56.507Z,10.40
2019-03-23T08:06:25.165Z,10.50
2019-03-23T08:08:53.780Z,10.60
2019-03-23T08:11:22.520Z,10.80
2019-03-23T08:13:51.178Z,11.00
2019-03-23T08:16:19.842Z,11.30
2019-03-23T08:18:48.507Z,11.50
2019-03-23T08:21:17.207Z,11.70
2019-03-23T08:23:45.821Z,11.80
2019-03-23T08:26:14.574Z,12.00
2019-03-23T08:28:43.183Z,12.20
2019-03-23T08:31:11.842Z,12.10
2019-03-23T08:33:40.478Z,12.30
2019-03-23T08:36:09.207Z,12.40
2019-03-23T08:38:37.866Z,12.50
2019-03-23T08:41:06.524Z,12.60
2019-03-23T08:43:35.199Z,12.70
2019-03-23T08:46:03.817Z,12.70
2019-03-23T08:48:32.429Z,12.90
2019-03-23T08:51:01.129Z,13.00
2019-03-23T08:53:29.750Z,13.10
2019-03-23T08:55:58.403Z,13.00
2019-03-23T08:58:28.371Z,13.20
2019-03-23T09:00:58.851Z,13.30
2019-03-23T09:03:27.464Z,13.30
2019-03-23T09:05:56.083Z,13.30
2019-03-23T09:08:24.748Z,13.40
2019-03-23T09:10:53.362Z,13.40
2019-03-23T09:13:22.020Z,13.60
2019-03-23T09:15:50.855Z,13.60
2019-03-23T09:18:19.469Z,13.60
2019-03-23T09:20:48.230Z,13.60
2019-03-23T09:23:16.847Z,13.70
2019-03-23T09:25:45.790Z,13.80
2019-03-23T09:28:14.593Z,13.90
2019-03-23T09:30:44.273Z,14.10
2019-03-23T09:33:12.891Z,14.10
2019-03-23T09:35:41.503Z,14.20
2019-03-23T09:38:10.174Z,14.20
2019-03-23T09:40:38.779Z,14.30
2019-03-23T09:43:07.445Z,14.30
2019-03-23T09:45:36.063Z,14.30
2019-03-23T09:48:04.867Z,14.30
2019-03-23T09:50:33.478Z,14.40
2019-03-23T09:53:02.137Z,14.50
2019-03-23T09:55:30.749Z,14.60
2019-03-23T09:57:59.423Z,14.50
2019-03-23T10:00:28.099Z,14.70
2019-03-23T10:02:56.719Z,14.90
2019-03-23T10:05:25.382Z,14.90
2019-03-23T10:07:53.999Z,15.10
2019-03-23T10:10:22.653Z,15.20
2019-03-23T10:12:51.357Z,15.40
2019-03-23T10:15:20.027Z,15.30
2019-03-23T10:17:48.638Z,15.40
2019-03-23T10:20:17.302Z,15.50
2019-03-23T10:22:45.963Z,15.50
2019-03-23T10:25:14.625Z,15.60
2019-03-23T10:27:43.233Z,15.80
2019-03-23T10:30:12.537Z,15.90
2019-03-23T10:32:41.268Z,16.00
2019-03-23T10:35:10.421Z,16.10
2019-03-23T10:37:39.250Z,16.10
2019-03-23T10:40:10.674Z,16.10
2019-03-23T10:42:40.199Z,16.20
2019-03-23T10:45:10.425Z,16.30
2019-03-23T10:47:39.150Z,16.30
2019-03-23T10:50:08.514Z,16.40
2019-03-23T10:52:37.183Z,16.50
2019-03-23T10:55:06.882Z,16.50
2019-03-23T10:57:35.629Z,16.60
2019-03-23T11:00:07.872Z,16.80
2019-03-23T11:02:36.490Z,16.90
2019-03-23T11:05:07.740Z,16.90
2019-03-23T11:07:36.355Z,16.90
2019-03-23T11:10:13.016Z,17.00
2019-03-23T11:12:41.632Z,17.00
2019-03-23T11:15:10.931Z,17.10
2019-03-23T11:17:39.590Z,17.10
2019-03-23T11:20:11.719Z,17.20
2019-03-23T11:22:40.560Z,17.40
2019-03-23T11:25:10.130Z,17.40
2019-03-23T11:27:38.923Z,17.50
2019-03-23T11:30:13.034Z,17.50
2019-03-23T11:32:41.931Z,17.60
2019-03-23T11:35:10.849Z,17.80
2019-03-23T11:37:39.844Z,17.90
2019-03-23T11:40:10.633Z,17.90
2019-03-23T11:42:49.262Z,18.00
2019-03-23T11:45:11.557Z,18.10
2019-03-23T11:47:40.165Z,18.20
2019-03-23T11:50:10.363Z,18.40
2019-03-23T11:52:39.048Z,18.40
2019-03-23T11:55:08.628Z,18.40
2019-03-23T11:57:37.318Z,18.50
2019-03-23T12:00:13.209Z,18.50
2019-03-23T12:02:41.893Z,18.50
2019-03-23T12:05:11.317Z,18.50
2019-03-23T12:07:39.978Z,18.50
2019-03-23T12:10:11.110Z,18.70
2019-03-23T12:12:39.775Z,18.80
2019-03-23T12:15:11.409Z,18.80
2019-03-23T12:17:40.235Z,18.90
2019-03-23T12:20:09.598Z,18.90
2019-03-23T12:22:38.311Z,18.80
2019-03-23T12:25:07.332Z,18.90
2019-03-23T12:27:35.953Z,18.90
2019-03-23T12:30:09.582Z,19.00
2019-03-23T12:32:38.199Z,18.90
2019-03-23T12:35:08.652Z,19.00
2019-03-23T12:37:37.323Z,19.00
2019-03-23T12:40:08.344Z,19.00
2019-03-23T12:42:37.001Z,19.00
2019-03-23T12:45:08.127Z,19.00
2019-03-23T12:47:36.783Z,19.20
2019-03-23T12:50:07.811Z,19.20
2019-03-23T12:52:36.476Z,19.30
2019-03-23T12:55:07.850Z,19.40
2019-03-23T12:57:36.524Z,19.50
2019-03-23T13:00:10.558Z,19.60
2019-03-23T13:02:39.282Z,19.60
2019-03-23T13:05:08.250Z,19.70
2019-03-23T13:07:36.866Z,19.60
2019-03-23T13:10:09.677Z,19.60
2019-03-23T13:12:38.292Z,19.70
2019-03-23T13:15:10.605Z,19.80
2019-03-23T13:17:39.217Z,19.90
2019-03-23T13:20:09.309Z,20.10
2019-03-23T13:22:38.021Z,20.50
2019-03-23T13:25:10.167Z,20.70
2019-03-23T13:27:38.854Z,20.80
2019-03-23T13:30:12.495Z,21.00
2019-03-23T13:32:41.157Z,20.30
2019-03-23T13:35:10.607Z,20.20
2019-03-23T13:37:39.264Z,20.00
2019-03-23T13:40:10.657Z,19.80
2019-03-23T13:42:39.309Z,19.90
2019-03-23T13:45:08.636Z,19.20
2019-03-23T13:47:38.127Z,18.90
2019-03-23T13:50:08.153Z,19.00
2019-03-23T13:52:36.882Z,18.80
2019-03-23T13:55:07.498Z,18.90
2019-03-23T13:57:36.162Z,19.10
2019-03-23T14:00:08.258Z,18.70
2019-03-23T14:02:36.916Z,18.70
2019-03-23T14:05:12.239Z,18.70
2019-03-23T14:07:36.543Z,18.80
2019-03-23T14:10:06.410Z,18.60
2019-03-23T14:12:35.079Z,18.60
2019-03-23T14:15:05.441Z,18.40
2019-03-23T14:17:34.053Z,18.40
2019-03-23T14:20:04.084Z,18.20
2019-03-23T14:22:32.699Z,17.80
2019-03-23T14:25:01.362Z,18.00
2019-03-23T14:27:29.973Z,17.90
2019-03-23T14:29:58.671Z,18.00
2019-03-23T14:32:27.290Z,18.10
2019-03-23T14:34:55.949Z,18.20
2019-03-23T14:37:24.566Z,17.80
2019-03-23T14:39:53.224Z,17.80
2019-03-23T14:42:21.836Z,17.70
2019-03-23T14:44:50.513Z,17.80
2019-03-23T14:47:19.123Z,18.00
2019-03-23T14:49:47.816Z,18.00
2019-03-23T14:52:16.476Z,18.10
2019-03-23T14:54:45.126Z,18.60
2019-03-23T14:57:13.789Z,18.90
2019-03-23T14:59:42.406Z,19.30
2019-03-23T15:02:11.074Z,19.80
2019-03-23T15:04:39.692Z,19.00
2019-03-23T15:07:08.351Z,19.20
2019-03-23T15:09:36.973Z,18.40
2019-03-23T15:12:14.719Z,18.80
2019-03-23T15:14:35.979Z,18.90
2019-03-23T15:17:04.628Z,19.20
2019-03-23T15:19:33.297Z,19.10
2019-03-23T15:22:01.919Z,19.10
2019-03-23T15:24:30.534Z,18.60
2019-03-23T15:26:59.194Z,18.70
2019-03-23T15:29:27.861Z,18.40
2019-03-23T15:31:56.476Z,17.80
2019-03-23T15:34:25.139Z,17.90
2019-03-23T15:36:53.753Z,18.00
2019-03-23T15:39:22.422Z,17.60
2019-03-23T15:41:51.040Z,17.20
2019-03-23T15:44:19.701Z,16.80
2019-03-23T15:46:48.319Z,16.60
2019-03-23T15:49:16.984Z,16.50
2019-03-23T15:51:45.598Z,15.90
2019-03-23T15:54:14.255Z,15.80
2019-03-23T15:56:42.874Z,15.60
2019-03-23T15:59:11.490Z,15.60
2019-03-23T16:01:40.157Z,15.50
2019-03-23T16:04:08.776Z,15.40
2019-03-23T16:06:37.427Z,14.90
2019-03-23T16:09:06.880Z,14.90
2019-03-23T16:11:35.541Z,14.80
2019-03-23T16:14:04.158Z,14.70
2019-03-23T16:16:32.825Z,14.60
2019-03-23T16:19:01.442Z,14.60
2019-03-23T16:21:30.057Z,14.50
2019-03-23T16:23:58.748Z,14.50
2019-03-23T16:26:27.359Z,14.40
2019-03-23T16:28:56.024Z,14.40
2019-03-23T16:31:24.639Z,14.40
2019-03-23T16:33:53.297Z,14.50
2019-03-23T16:36:21.908Z,14.60
2019-03-23T16:38:50.572Z,14.30
2019-03-23T16:41:19.185Z,14.20
2019-03-23T16:43:47.844Z,14.10
2019-03-23T16:46:16.508Z,13.90
2019-03-23T16:48:45.123Z,13.80
2019-03-23T16:51:13.780Z,13.80
2019-03-23T16:53:42.468Z,13.80
2019-03-23T16:56:11.138Z,13.90
2019-03-23T16:58:39.859Z,13.80
2019-03-23T17:01:08.580Z,13.60
2019-03-23T17:03:37.197Z,13.50
2019-03-23T17:06:05.863Z,13.40
2019-03-23T17:08:34.476Z,13.30
2019-03-23T17:11:03.274Z,13.30
2019-03-23T17:13:31.890Z,13.40
2019-03-23T17:16:00.558Z,13.20
2019-03-23T17:18:29.173Z,13.20
2019-03-23T17:20:57.798Z,13.10
2019-03-23T17:23:26.499Z,13.10
2019-03-23T17:25:55.115Z,13.00
2019-03-23T17:28:23.771Z,12.80
2019-03-23T17:30:52.385Z,12.80
2019-03-23T17:33:21.045Z,12.90
2019-03-23T17:35:49.662Z,12.90
2019-03-23T17:38:19.506Z,12.80
2019-03-23T17:40:48.221Z,12.80
2019-03-23T17:43:16.832Z,12.70
2019-03-23T17:45:45.498Z,12.60
2019-03-23T17:48:14.165Z,12.70
2019-03-23T17:50:42.829Z,12.70
2019-03-23T17:53:11.442Z,12.70
2019-03-23T17:55:40.102Z,12.60
2019-03-23T17:58:08.768Z,12.70
2019-03-23T18:00:37.382Z,12.60
2019-03-23T18:03:06.044Z,12.70
2019-03-23T18:05:34.657Z,12.70
2019-03-23T18:08:03.392Z,12.80
2019-03-23T18:10:32.006Z,12.80
2019-03-23T18:13:00.663Z,12.60
2019-03-23T18:15:29.343Z,12.70
2019-03-23T18:17:58.001Z,12.70
2019-03-23T18:20:26.616Z,12.60
2019-03-23T18:22:55.267Z,12.70
2019-03-23T18:25:23.933Z,12.80
2019-03-23T18:27:52.598Z,12.80
2019-03-23T18:30:36.950Z,12.80
2019-03-23T18:33:07.272Z,12.70
2019-03-23T18:35:36.134Z,12.70
2019-03-23T18:38:05.290Z,12.60
2019-03-23T18:40:34.891Z,12.70
2019-03-23T18:43:04.080Z,12.70
2019-03-23T18:45:32.748Z,12.80
2019-03-23T18:48:01.362Z,12.80
2019-03-23T18:50:30.039Z,12.70
2019-03-23T18:52:58.702Z,12.50
2019-03-23T18:55:27.315Z,12.50
2019-03-23T18:57:57.747Z,12.40
2019-03-23T19:00:36.669Z,12.40
2019-03-23T19:03:05.785Z,12.50
2019-03-23T19:05:35.211Z,12.60
2019-03-23T19:08:04.260Z,12.70
2019-03-23T19:10:33.087Z,12.70
2019-03-23T19:13:01.705Z,12.70
2019-03-23T19:15:30.538Z,12.70
2019-03-23T19:17:59.201Z,12.70
2019-03-23T19:20:27.813Z,12.80
2019-03-23T19:22:56.424Z,12.80
2019-03-23T19:25:25.092Z,12.80
2019-03-23T19:27:53.700Z,12.90
2019-03-23T19:30:22.701Z,12.70
2019-03-23T19:32:51.319Z,12.70
2019-03-23T19:35:19.985Z,12.80
2019-03-23T19:37:48.647Z,12.70
2019-03-23T19:40:17.566Z,12.50
2019-03-23T19:42:46.219Z,12.40
2019-03-23T19:45:14.948Z,12.50
2019-03-23T19:47:43.561Z,12.50
2019-03-23T19:50:12.402Z,12.40
2019-03-23T19:52:41.020Z,12.50
2019-03-23T19:55:10.235Z,12.50
2019-03-23T19:57:38.935Z,12.40
2019-03-23T20:00:09.954Z,12.50
2019-03-23T20:02:38.765Z,12.50
2019-03-23T20:05:07.617Z,12.50
2019-03-23T20:07:36.276Z,12.40
2019-03-23T20:10:08.860Z,12.50
2019-03-23T20:12:37.810Z,12.60
2019-03-23T20:15:08.224Z,12.50
2019-03-23T20:17:37.016Z,12.50
2019-03-23T20:20:08.335Z,12.40
2019-03-23T20:22:36.994Z,12.50
2019-03-23T20:25:07.078Z,12.50
2019-03-23T20:27:35.687Z,12.50
2019-03-23T20:30:08.855Z,12.40
2019-03-23T20:32:37.606Z,12.40
2019-03-23T20:35:07.494Z,12.40
2019-03-23T20:37:36.113Z,12.40
2019-03-23T20:40:07.556Z,12.40
2019-03-23T20:42:36.154Z,12.30
2019-03-23T20:45:07.500Z,12.20
2019-03-23T20:47:37.543Z,12.20
2019-03-23T20:50:08.911Z,12.20
2019-03-23T20:52:37.635Z,12.10
2019-03-23T20:55:25.692Z,12.10
2019-03-23T20:57:54.986Z,12.10
2019-03-23T21:00:23.719Z,12.10
2019-03-23T21:02:52.409Z,12.20
2019-03-23T21:05:21.090Z,12.10
2019-03-23T21:07:49.824Z,12.10
2019-03-23T21:10:18.440Z,12.10
2019-03-23T21:12:47.467Z,12.00
2019-03-23T21:15:16.078Z,12.00
2019-03-23T21:17:51.252Z,12.00
2019-03-23T21:20:15.215Z,11.90
2019-03-23T21:22:43.874Z,11.70
2019-03-23T21:25:12.802Z,11.70
2019-03-23T21:27:41.413Z,11.70
2019-03-23T21:30:17.413Z,11.60
2019-03-23T21:32:46.023Z,11.60
2019-03-23T21:35:15.779Z,11.50
2019-03-23T21:37:44.670Z,11.50
2019-03-23T21:40:13.572Z,11.40
2019-03-23T21:42:42.189Z,11.40
2019-03-23T21:45:11.396Z,11.30
2019-03-23T21:47:40.008Z,11.40
2019-03-23T21:50:09.378Z,11.40
2019-03-23T21:52:38.041Z,11.30
2019-03-23T21:55:08.108Z,11.30
2019-03-23T21:57:36.888Z,11.30
2019-03-23T22:00:08.264Z,11.30
2019-03-23T22:02:36.876Z,11.30
2019-03-23T22:05:06.946Z,11.20
2019-03-23T22:07:35.999Z,11.10
2019-03-23T22:10:07.368Z,11.10
2019-03-23T22:12:36.392Z,11.00
2019-03-23T22:15:08.251Z,11.00
2019-03-23T22:17:36.925Z,11.00
2019-03-23T22:20:07.616Z,10.90
2019-03-23T22:22:36.225Z,10.90
2019-03-23T22:25:06.500Z,10.80
2019-03-23T22:27:36.700Z,10.80
2019-03-23T22:30:11.636Z,10.80
2019-03-23T22:32:40.317Z,10.80
2019-03-23T22:35:10.187Z,10.80
2019-03-23T22:37:38.852Z,10.70
2019-03-23T22:40:11.341Z,10.60
2019-03-23T22:42:39.995Z,10.60
2019-03-23T22:45:09.932Z,10.50
2019-03-23T22:47:38.602Z,10.50
2019-03-23T22:50:08.876Z,10.50
2019-03-23T22:52:37.656Z,10.40
2019-03-23T22:55:07.156Z,10.30
2019-03-23T22:57:35.768Z,10.10
2019-03-23T23:00:17.782Z,10.10
2019-03-23T23:02:46.571Z,10.00
2019-03-23T23:05:15.406Z,9.90
2019-03-23T23:07:44.850Z,9.80
2019-03-23T23:10:13.700Z,9.70
2019-03-23T23:12:42.356Z,9.60
2019-03-23T23:15:11.737Z,9.60
2019-03-23T23:17:40.344Z,9.50
2019-03-23T23:20:10.191Z,9.40
2019-03-23T23:22:38.848Z,9.40
2019-03-23T23:25:08.421Z,9.40
2019-03-23T23:27:37.338Z,9.40
2019-03-23T23:30:08.673Z,9.40
2019-03-23T23:32:37.564Z,9.40
2019-03-23T23:35:08.785Z,9.50
2019-03-23T23:37:37.447Z,9.50
2019-03-23T23:40:07.159Z,9.40
2019-03-23T23:42:36.000Z,9.40
2019-03-23T23:45:15.384Z,9.30
2019-03-23T23:47:40.133Z,9.40
2019-03-23T23:50:10.477Z,9.40
2019-03-23T23:52:39.137Z,9.40
2019-03-23T23:55:08.084Z,9.40
2019-03-23T23:57:36.705Z,9.40
